createdAt,value
2023-09-08T00:00:34.342Z,0.00
2023-09-08T00:01:34.366Z,0.00
2023-09-08T00:02:34.433Z,0.00
2023-09-08T00:03:34.344Z,0.00
2023-09-08T00:04:40.307Z,0.00
2023-09-08T00:05:34.262Z,0.00
2023-09-08T00:06:34.270Z,0.00
2023-09-08T00:07:36.835Z,0.00
2023-09-08T00:08:34.520Z,0.00
2023-09-08T00:09:34.193Z,0.00
2023-09-08T00:10:34.191Z,0.00
2023-09-08T00:11:34.187Z,0.00
2023-09-08T00:12:34.155Z,0.00
2023-09-08T00:13:34.202Z,0.00
2023-09-08T00:14:34.135Z,0.00
2023-09-08T00:15:34.148Z,0.00
2023-09-08T00:16:34.256Z,0.00
2023-09-08T00:17:34.148Z,0.00
2023-09-08T00:18:40.077Z,0.00
2023-09-08T00:19:34.128Z,0.00
2023-09-08T00:20:34.086Z,0.00
2023-09-08T00:21:34.039Z,0.00
2023-09-08T00:22:34.080Z,0.00
2023-09-08T00:23:34.058Z,0.00
2023-09-08T00:24:34.026Z,0.00
2023-09-08T00:25:34.000Z,0.00
2023-09-08T00:26:34.008Z,0.00
2023-09-08T00:27:33.989Z,0.00
2023-09-08T00:28:34.183Z,0.00
2023-09-08T00:29:34.009Z,0.00
2023-09-08T00:30:33.910Z,0.00
2023-09-08T00:31:33.940Z,0.00
2023-09-08T00:32:34.051Z,0.00
2023-09-08T00:33:33.954Z,0.00
2023-09-08T00:34:33.867Z,0.00
2023-09-08T00:35:33.878Z,0.00
2023-09-08T00:36:33.836Z,0.00
2023-09-08T00:37:33.874Z,0.00
2023-09-08T00:38:34.247Z,0.00
2023-09-08T00:39:33.827Z,0.00
2023-09-08T00:40:33.800Z,0.00
2023-09-08T00:41:33.847Z,0.00
2023-09-08T00:42:33.761Z,0.00
2023-09-08T00:43:33.763Z,0.00
2023-09-08T00:44:33.756Z,0.00
2023-09-08T00:45:33.787Z,0.00
2023-09-08T00:46:33.794Z,0.00
2023-09-08T00:47:33.736Z,0.00
2023-09-08T00:48:34.030Z,0.00
2023-09-08T00:49:33.693Z,0.00
2023-09-08T00:50:33.681Z,0.00
2023-09-08T00:51:33.671Z,0.00
2023-09-08T00:52:33.670Z,0.00
2023-09-08T00:53:33.635Z,0.00
2023-09-08T00:54:33.605Z,0.00
2023-09-08T00:55:33.595Z,0.00
2023-09-08T00:56:33.669Z,0.00
2023-09-08T00:57:33.574Z,0.00
2023-09-08T00:58:33.847Z,0.00
2023-09-08T00:59:33.553Z,0.00
2023-09-08T01:00:33.548Z,0.00
2023-09-08T01:01:33.629Z,0.00
2023-09-08T01:02:33.603Z,0.00
2023-09-08T01:03:33.554Z,0.00
2023-09-08T01:04:33.565Z,0.00
2023-09-08T01:05:33.614Z,0.00
2023-09-08T01:06:33.476Z,0.00
2023-09-08T01:07:33.456Z,0.00
2023-09-08T01:08:33.761Z,0.00
2023-09-08T01:09:33.522Z,0.00
2023-09-08T01:10:33.413Z,0.00
2023-09-08T01:11:33.420Z,0.00
2023-09-08T01:12:33.386Z,0.00
2023-09-08T01:13:33.385Z,0.00
2023-09-08T01:14:33.361Z,0.00
2023-09-08T01:15:33.374Z,0.00
2023-09-08T01:16:33.357Z,0.00
2023-09-08T01:17:33.323Z,0.00
2023-09-08T01:18:33.673Z,0.00
2023-09-08T01:19:33.316Z,0.00
2023-09-08T01:20:33.277Z,0.00
2023-09-08T01:21:33.330Z,0.00
2023-09-08T01:22:33.259Z,0.00
2023-09-08T01:23:33.259Z,0.00
2023-09-08T01:24:33.251Z,0.00
2023-09-08T01:25:33.220Z,0.00
2023-09-08T01:26:33.199Z,0.00
2023-09-08T01:27:33.208Z,0.00
2023-09-08T01:28:33.468Z,0.00
2023-09-08T01:29:33.156Z,0.00
2023-09-08T01:30:33.167Z,0.00
2023-09-08T01:31:33.172Z,0.00
2023-09-08T01:32:33.124Z,0.00
2023-09-08T01:33:33.125Z,0.00
2023-09-08T01:34:33.123Z,0.00
2023-09-08T01:35:33.097Z,0.00
2023-09-08T01:36:33.092Z,0.00
2023-09-08T01:37:33.082Z,0.00
2023-09-08T01:38:33.469Z,0.00
2023-09-08T01:39:33.042Z,0.00
2023-09-08T01:40:33.031Z,0.00
2023-09-08T01:41:33.027Z,0.00
2023-09-08T01:42:32.992Z,0.00
2023-09-08T01:43:32.995Z,0.00
2023-09-08T01:44:33.031Z,0.00
2023-09-08T01:45:33.071Z,0.00
2023-09-08T01:46:32.977Z,0.00
2023-09-08T01:47:32.934Z,0.00
2023-09-08T01:48:33.168Z,0.00
2023-09-08T01:49:32.893Z,0.00
2023-09-08T01:50:32.910Z,0.00
2023-09-08T01:51:32.896Z,0.00
2023-09-08T01:52:32.859Z,0.00
2023-09-08T01:53:32.886Z,0.00
2023-09-08T01:54:32.875Z,0.00
2023-09-08T01:55:32.820Z,0.00
2023-09-08T01:56:32.839Z,0.00
2023-09-08T01:57:32.818Z,0.00
2023-09-08T01:58:33.092Z,0.00
2023-09-08T01:59:32.783Z,0.00
2023-09-08T02:00:32.849Z,0.00
2023-09-08T02:01:32.820Z,0.00
2023-09-08T02:02:32.767Z,0.00
2023-09-08T02:03:32.720Z,0.00
2023-09-08T02:04:32.794Z,0.00
2023-09-08T02:05:32.766Z,0.00
2023-09-08T02:06:32.671Z,0.00
2023-09-08T02:07:32.714Z,0.00
2023-09-08T02:08:33.148Z,0.00
2023-09-08T02:09:32.687Z,0.00
2023-09-08T02:10:32.639Z,0.00
2023-09-08T02:11:32.638Z,0.00
2023-09-08T02:12:32.617Z,0.00
2023-09-08T02:13:32.588Z,0.00
2023-09-08T02:14:32.584Z,0.00
2023-09-08T02:15:32.681Z,0.00
2023-09-08T02:16:32.589Z,0.00
2023-09-08T02:17:32.538Z,0.00
2023-09-08T02:18:32.750Z,0.00
2023-09-08T02:19:32.636Z,0.00
2023-09-08T02:20:32.490Z,0.00
2023-09-08T02:21:32.592Z,0.00
2023-09-08T02:22:32.466Z,0.00
2023-09-08T02:23:32.473Z,0.00
2023-09-08T02:24:32.494Z,0.00
2023-09-08T02:25:32.461Z,0.00
2023-09-08T02:26:32.413Z,0.00
2023-09-08T02:27:32.411Z,0.00
2023-09-08T02:28:32.650Z,0.00
2023-09-08T02:29:32.377Z,0.00
2023-09-08T02:30:32.453Z,0.00
2023-09-08T02:31:32.372Z,0.00
2023-09-08T02:32:32.375Z,0.00
2023-09-08T02:33:32.449Z,0.00
2023-09-08T02:34:32.314Z,0.00
2023-09-08T02:35:32.306Z,0.00
2023-09-08T02:36:32.322Z,0.00
2023-09-08T02:37:32.318Z,0.00
2023-09-08T02:38:32.385Z,0.00
2023-09-08T02:39:32.295Z,0.00
2023-09-08T02:40:32.241Z,0.00
2023-09-08T02:41:32.224Z,0.00
2023-09-08T02:42:32.243Z,0.00
2023-09-08T02:43:32.208Z,0.00
2023-09-08T02:44:32.194Z,0.00
2023-09-08T02:45:33.729Z,0.00
2023-09-08T02:46:32.181Z,0.00
2023-09-08T02:47:32.161Z,0.00
2023-09-08T02:48:32.219Z,0.00
2023-09-08T02:49:32.159Z,0.00
2023-09-08T02:50:32.106Z,0.00
2023-09-08T02:51:32.177Z,0.00
2023-09-08T02:52:32.091Z,0.00
2023-09-08T02:53:32.083Z,0.00
2023-09-08T02:54:32.088Z,0.00
2023-09-08T02:55:32.073Z,0.00
2023-09-08T02:56:32.025Z,0.00
2023-09-08T02:57:32.017Z,0.00
2023-09-08T02:58:32.111Z,0.00
2023-09-08T02:59:32.013Z,0.00
2023-09-08T03:00:32.145Z,0.00
2023-09-08T03:01:38.351Z,0.00
2023-09-08T03:02:32.171Z,0.00
2023-09-08T03:03:32.089Z,0.00
2023-09-08T03:04:31.982Z,0.00
2023-09-08T03:05:38.224Z,0.00
2023-09-08T03:06:31.922Z,0.00
2023-09-08T03:07:31.931Z,0.00
2023-09-08T03:08:31.868Z,0.00
2023-09-08T03:09:31.905Z,0.00
2023-09-08T03:10:31.863Z,0.00
2023-09-08T03:11:31.853Z,0.00
2023-09-08T03:12:31.848Z,0.00
2023-09-08T03:13:31.865Z,0.00
2023-09-08T03:14:31.820Z,0.00
2023-09-08T03:15:31.786Z,0.00
2023-09-08T03:16:31.919Z,0.00
2023-09-08T03:17:31.802Z,0.00
2023-09-08T03:18:31.780Z,0.00
2023-09-08T03:19:31.768Z,0.00
2023-09-08T03:20:31.736Z,0.00
2023-09-08T03:21:31.712Z,0.00
2023-09-08T03:22:37.776Z,0.00
2023-09-08T03:23:31.832Z,0.00
2023-09-08T03:24:31.692Z,0.00
2023-09-08T03:25:31.656Z,0.00
2023-09-08T03:26:31.682Z,0.00
2023-09-08T03:27:31.646Z,0.00
2023-09-08T03:28:31.650Z,0.00
2023-09-08T03:29:31.606Z,0.00
2023-09-08T03:30:31.602Z,0.00
2023-09-08T03:31:31.654Z,0.00
2023-09-08T03:32:31.701Z,0.00
2023-09-08T03:33:31.734Z,0.00
2023-09-08T03:34:31.705Z,0.00
2023-09-08T03:35:31.530Z,0.00
2023-09-08T03:36:31.555Z,0.00
2023-09-08T03:37:31.528Z,0.00
2023-09-08T03:38:31.498Z,0.00
2023-09-08T03:39:31.496Z,0.00
2023-09-08T03:40:31.486Z,0.00
2023-09-08T03:41:31.478Z,0.00
2023-09-08T03:42:31.434Z,0.00
2023-09-08T03:43:31.418Z,0.00
2023-09-08T03:44:31.431Z,0.00
2023-09-08T03:45:31.459Z,0.00
2023-09-08T03:46:31.567Z,0.00
2023-09-08T03:47:31.502Z,0.00
2023-09-08T03:48:31.351Z,0.00
2023-09-08T03:49:31.388Z,0.00
2023-09-08T03:50:31.341Z,0.00
2023-09-08T03:51:31.349Z,0.00
2023-09-08T03:52:31.323Z,0.00
2023-09-08T03:53:31.335Z,0.00
2023-09-08T03:54:31.297Z,0.00
2023-09-08T03:55:31.272Z,4.00
2023-09-08T03:56:31.316Z,4.00
2023-09-08T03:57:31.236Z,4.00
2023-09-08T03:58:31.245Z,0.00
2023-09-08T03:59:31.219Z,4.00
2023-09-08T04:00:31.243Z,4.00
2023-09-08T04:01:31.237Z,4.00
2023-09-08T04:02:31.227Z,8.00
2023-09-08T04:03:31.247Z,8.00
2023-09-08T04:04:31.179Z,8.00
2023-09-08T04:05:31.263Z,8.00
2023-09-08T04:06:31.183Z,8.00
2023-09-08T04:07:31.161Z,12.00
2023-09-08T04:08:31.135Z,12.00
2023-09-08T04:09:31.093Z,16.00
2023-09-08T04:10:31.064Z,20.00
2023-09-08T04:11:31.075Z,20.00
2023-09-08T04:12:31.045Z,24.00
2023-09-08T04:13:31.046Z,32.00
2023-09-08T04:14:31.031Z,36.00
2023-09-08T04:15:31.017Z,44.00
2023-09-08T04:16:30.994Z,52.00
2023-09-08T04:17:31.005Z,60.00
2023-09-08T04:18:31.140Z,64.00
2023-09-08T04:19:30.952Z,80.00
2023-09-08T04:20:30.950Z,88.00
2023-09-08T04:21:30.943Z,100.00
2023-09-08T04:22:30.908Z,116.00
2023-09-08T04:23:30.916Z,128.00
2023-09-08T04:24:30.902Z,144.00
2023-09-08T04:25:30.873Z,156.00
2023-09-08T04:26:30.854Z,176.00
2023-09-08T04:27:30.845Z,192.00
2023-09-08T04:28:30.837Z,212.00
2023-09-08T04:29:30.849Z,232.00
2023-09-08T04:30:30.848Z,256.00
2023-09-08T04:31:30.891Z,280.00
2023-09-08T04:32:30.791Z,300.00
2023-09-08T04:33:30.919Z,328.00
2023-09-08T04:34:30.768Z,352.00
2023-09-08T04:35:30.759Z,376.00
2023-09-08T04:36:30.727Z,404.00
2023-09-08T04:37:30.734Z,436.00
2023-09-08T04:38:30.736Z,460.00
2023-09-08T04:39:30.699Z,496.00
2023-09-08T04:40:30.691Z,524.00
2023-09-08T04:41:30.686Z,556.00
2023-09-08T04:42:30.728Z,592.00
2023-09-08T04:43:30.658Z,628.00
2023-09-08T04:44:30.631Z,664.00
2023-09-08T04:45:30.679Z,700.00
2023-09-08T04:46:30.667Z,736.00
2023-09-08T04:47:30.597Z,776.00
2023-09-08T04:48:31.282Z,808.00
2023-09-08T04:49:30.598Z,844.00
2023-09-08T04:50:30.572Z,880.00
2023-09-08T04:51:30.559Z,916.00
2023-09-08T04:52:30.523Z,948.00
2023-09-08T04:53:30.543Z,984.00
2023-09-08T04:54:30.492Z,1020.00
2023-09-08T04:55:30.509Z,1052.00
2023-09-08T04:56:30.534Z,1092.00
2023-09-08T04:57:30.478Z,1128.00
2023-09-08T04:58:30.454Z,1160.00
2023-09-08T04:59:30.506Z,1196.00
2023-09-08T05:00:30.436Z,1232.00
2023-09-08T05:01:30.446Z,1264.00
2023-09-08T05:02:30.456Z,1300.00
2023-09-08T05:03:30.488Z,1332.00
2023-09-08T05:04:30.404Z,1368.00
2023-09-08T05:05:30.402Z,1404.00
2023-09-08T05:06:30.391Z,1436.00
2023-09-08T05:07:30.355Z,1468.00
2023-09-08T05:08:30.368Z,1500.00
2023-09-08T05:09:30.303Z,1532.00
2023-09-08T05:10:30.317Z,1568.00
2023-09-08T05:11:30.378Z,1600.00
2023-09-08T05:12:30.264Z,1624.00
2023-09-08T05:13:31.947Z,1660.00
2023-09-08T05:14:30.247Z,1688.00
2023-09-08T05:15:30.334Z,1720.00
2023-09-08T05:16:30.230Z,1748.00
2023-09-08T05:17:30.216Z,1776.00
2023-09-08T05:18:30.209Z,1804.00
2023-09-08T05:19:30.176Z,1832.00
2023-09-08T05:20:30.193Z,1864.00
2023-09-08T05:21:30.190Z,1896.00
2023-09-08T05:22:30.158Z,1924.00
2023-09-08T05:23:30.134Z,1948.00
2023-09-08T05:24:30.119Z,1976.00
2023-09-08T05:25:30.132Z,2004.00
2023-09-08T05:26:30.098Z,2044.00
2023-09-08T05:27:30.123Z,2084.00
2023-09-08T05:28:30.091Z,2116.00
2023-09-08T05:29:30.049Z,2140.00
2023-09-08T05:30:30.038Z,2172.00
2023-09-08T05:31:30.054Z,2196.00
2023-09-08T05:32:30.069Z,2220.00
2023-09-08T05:33:30.024Z,2252.00
2023-09-08T05:34:30.007Z,2272.00
2023-09-08T05:35:29.982Z,2300.00
2023-09-08T05:36:30.011Z,2328.00
2023-09-08T05:37:29.950Z,2348.00
2023-09-08T05:38:29.999Z,2368.00
2023-09-08T05:39:29.925Z,2392.00
2023-09-08T05:40:29.946Z,2404.00
2023-09-08T05:41:29.910Z,2436.00
2023-09-08T05:42:29.889Z,2480.00
2023-09-08T05:43:30.030Z,2508.00
2023-09-08T05:44:29.869Z,2536.00
2023-09-08T05:45:29.849Z,2560.00
2023-09-08T05:46:29.916Z,2584.00
2023-09-08T05:47:29.890Z,2604.00
2023-09-08T05:48:29.834Z,2628.00
2023-09-08T05:49:29.882Z,2652.00
2023-09-08T05:50:29.793Z,2676.00
2023-09-08T05:51:29.784Z,2692.00
2023-09-08T05:52:29.880Z,2716.00
2023-09-08T05:53:29.801Z,2736.00
2023-09-08T05:54:29.742Z,2760.00
2023-09-08T05:55:29.702Z,2780.00
2023-09-08T05:56:29.711Z,2804.00
2023-09-08T05:57:29.688Z,2820.00
2023-09-08T05:58:29.684Z,2844.00
2023-09-08T05:59:29.675Z,2864.00
2023-09-08T06:00:29.658Z,2880.00
2023-09-08T06:01:29.767Z,2904.00
2023-09-08T06:02:29.801Z,2928.00
2023-09-08T06:03:29.845Z,2948.00
2023-09-08T06:04:29.752Z,2960.00
2023-09-08T06:05:29.610Z,2980.00
2023-09-08T06:06:29.743Z,3000.00
2023-09-08T06:07:29.563Z,3024.00
2023-09-08T06:08:29.622Z,3036.00
2023-09-08T06:09:29.549Z,3060.00
2023-09-08T06:10:29.514Z,3076.00
2023-09-08T06:11:29.499Z,3096.00
2023-09-08T06:12:29.568Z,3120.00
2023-09-08T06:13:29.478Z,3132.00
2023-09-08T06:14:29.487Z,3144.00
2023-09-08T06:15:29.577Z,3164.00
2023-09-08T06:16:29.547Z,3184.00
2023-09-08T06:17:29.457Z,3200.00
2023-09-08T06:18:29.442Z,3216.00
2023-09-08T06:19:29.404Z,3236.00
2023-09-08T06:20:29.431Z,3252.00
2023-09-08T06:21:29.388Z,3268.00
2023-09-08T06:22:29.385Z,3280.00
2023-09-08T06:23:29.351Z,3288.00
2023-09-08T06:24:29.344Z,3304.00
2023-09-08T06:25:29.330Z,3316.00
2023-09-08T06:26:29.421Z,3328.00
2023-09-08T06:27:29.299Z,3344.00
2023-09-08T06:28:29.327Z,3356.00
2023-09-08T06:29:29.277Z,3372.00
2023-09-08T06:30:29.272Z,3384.00
2023-09-08T06:31:29.261Z,3400.00
2023-09-08T06:32:29.289Z,3416.00
2023-09-08T06:33:29.315Z,3424.00
2023-09-08T06:34:29.351Z,3436.00
2023-09-08T06:35:29.180Z,3456.00
2023-09-08T06:36:29.224Z,3460.00
2023-09-08T06:37:29.218Z,3476.00
2023-09-08T06:38:29.158Z,3488.00
2023-09-08T06:39:29.219Z,3500.00
2023-09-08T06:40:29.137Z,3516.00
2023-09-08T06:41:29.109Z,3524.00
2023-09-08T06:42:29.128Z,3536.00
2023-09-08T06:43:29.098Z,3548.00
2023-09-08T06:44:29.067Z,3560.00
2023-09-08T06:45:29.070Z,3572.00
2023-09-08T06:46:29.081Z,3584.00
2023-09-08T06:47:29.105Z,3596.00
2023-09-08T06:48:29.082Z,3608.00
2023-09-08T06:49:29.019Z,3620.00
2023-09-08T06:50:29.048Z,3628.00
2023-09-08T06:51:29.008Z,3640.00
2023-09-08T06:52:28.988Z,3652.00
2023-09-08T06:53:28.973Z,3668.00
2023-09-08T06:54:28.974Z,3676.00
2023-09-08T06:55:28.951Z,3688.00
2023-09-08T06:56:28.945Z,3700.00
2023-09-08T06:57:28.996Z,3708.00
2023-09-08T06:58:28.892Z,3720.00
2023-09-08T06:59:28.892Z,3728.00
2023-09-08T07:00:28.874Z,3736.00
2023-09-08T07:01:28.956Z,3752.00
2023-09-08T07:02:28.894Z,3756.00
2023-09-08T07:03:29.016Z,3764.00
2023-09-08T07:04:28.849Z,3772.00
2023-09-08T07:05:28.830Z,3784.00
2023-09-08T07:06:28.828Z,3792.00
2023-09-08T07:07:28.771Z,3804.00
2023-09-08T07:08:28.780Z,3804.00
2023-09-08T07:09:28.741Z,3812.00
2023-09-08T07:10:28.755Z,3824.00
2023-09-08T07:11:28.718Z,3828.00
2023-09-08T07:12:28.719Z,3836.00
2023-09-08T07:13:28.752Z,3844.00
2023-09-08T07:14:28.697Z,3860.00
2023-09-08T07:15:28.676Z,3868.00
2023-09-08T07:16:28.757Z,3868.00
2023-09-08T07:17:28.776Z,3876.00
2023-09-08T07:18:28.658Z,3888.00
2023-09-08T07:19:28.708Z,3892.00
2023-09-08T07:20:28.622Z,3908.00
2023-09-08T07:21:28.695Z,3912.00
2023-09-08T07:22:28.689Z,3916.00
2023-09-08T07:23:28.582Z,3920.00
2023-09-08T07:24:28.563Z,3936.00
2023-09-08T07:25:28.651Z,3936.00
2023-09-08T07:26:28.543Z,3948.00
2023-09-08T07:27:28.528Z,3948.00
2023-09-08T07:28:28.510Z,3960.00
2023-09-08T07:29:28.503Z,3960.00
2023-09-08T07:30:28.537Z,3964.00
2023-09-08T07:31:28.483Z,3972.00
2023-09-08T07:32:28.509Z,3984.00
2023-09-08T07:33:28.516Z,3980.00
2023-09-08T07:34:28.441Z,3984.00
2023-09-08T07:35:28.425Z,3992.00
2023-09-08T07:36:28.446Z,3996.00
2023-09-08T07:37:28.403Z,4000.00
2023-09-08T07:38:28.448Z,4016.00
2023-09-08T07:39:28.370Z,4012.00
2023-09-08T07:40:28.363Z,4020.00
2023-09-08T07:41:28.328Z,4024.00
2023-09-08T07:42:28.352Z,4020.00
2023-09-08T07:43:28.425Z,4024.00
2023-09-08T07:44:28.413Z,4032.00
2023-09-08T07:45:28.309Z,4036.00
2023-09-08T07:46:28.308Z,4044.00
2023-09-08T07:47:29.623Z,4048.00
2023-09-08T07:48:28.386Z,4048.00
2023-09-08T07:49:28.392Z,4064.00
2023-09-08T07:50:28.214Z,4056.00
2023-09-08T07:51:28.237Z,4060.00
2023-09-08T07:52:28.195Z,4068.00
2023-09-08T07:53:28.213Z,4064.00
2023-09-08T07:54:28.182Z,4080.00
2023-09-08T07:55:28.226Z,4072.00
2023-09-08T07:56:28.219Z,4076.00
2023-09-08T07:57:28.132Z,4088.00
2023-09-08T07:58:28.130Z,4080.00
2023-09-08T07:59:28.104Z,4080.00
2023-09-08T08:00:28.097Z,4084.00
2023-09-08T08:01:28.083Z,4088.00
2023-09-08T08:02:28.149Z,4096.00
2023-09-08T08:03:28.110Z,4096.00
2023-09-08T08:04:28.122Z,4100.00
2023-09-08T08:05:28.172Z,4104.00
2023-09-08T08:06:28.032Z,4112.00
2023-09-08T08:07:27.999Z,4104.00
2023-09-08T08:08:28.084Z,4112.00
2023-09-08T08:09:27.979Z,4112.00
2023-09-08T08:10:27.977Z,4120.00
2023-09-08T08:11:27.972Z,4124.00
2023-09-08T08:12:27.951Z,4132.00
2023-09-08T08:13:27.939Z,4128.00
2023-09-08T08:14:27.925Z,4144.00
2023-09-08T08:15:27.954Z,4136.00
2023-09-08T08:16:27.972Z,4144.00
2023-09-08T08:17:27.923Z,4148.00
2023-09-08T08:18:27.939Z,4148.00
2023-09-08T08:19:27.841Z,4144.00
2023-09-08T08:20:27.886Z,4148.00
2023-09-08T08:21:27.876Z,4148.00
2023-09-08T08:22:27.840Z,4156.00
2023-09-08T08:23:27.812Z,4144.00
2023-09-08T08:24:27.829Z,4152.00
2023-09-08T08:25:27.771Z,4160.00
2023-09-08T08:26:27.783Z,4148.00
2023-09-08T08:27:27.800Z,4160.00
2023-09-08T08:28:27.741Z,4168.00
2023-09-08T08:29:27.762Z,4148.00
2023-09-08T08:30:27.750Z,4160.00
2023-09-08T08:31:27.822Z,4156.00
2023-09-08T08:32:27.753Z,4164.00
2023-09-08T08:33:27.752Z,4152.00
2023-09-08T08:34:27.670Z,4152.00
2023-09-08T08:35:27.679Z,4156.00
2023-09-08T08:36:27.684Z,4156.00
2023-09-08T08:37:27.633Z,4160.00
2023-09-08T08:38:27.651Z,4164.00
2023-09-08T08:39:27.594Z,4172.00
2023-09-08T08:40:27.601Z,4168.00
2023-09-08T08:41:27.673Z,4172.00
2023-09-08T08:42:27.545Z,4176.00
2023-09-08T08:43:27.601Z,4176.00
2023-09-08T08:44:27.563Z,4180.00
2023-09-08T08:45:27.529Z,4192.00
2023-09-08T08:46:27.524Z,4192.00
2023-09-08T08:47:27.600Z,4208.00
2023-09-08T08:48:27.468Z,4196.00
2023-09-08T08:49:27.463Z,4204.00
2023-09-08T08:50:28.175Z,4208.00
2023-09-08T08:51:27.505Z,4228.00
2023-09-08T08:52:27.430Z,4224.00
2023-09-08T08:53:27.427Z,4228.00
2023-09-08T08:54:27.475Z,4244.00
2023-09-08T08:55:27.401Z,4236.00
2023-09-08T08:56:27.387Z,4244.00
2023-09-08T08:57:27.437Z,4252.00
2023-09-08T08:58:27.344Z,4256.00
2023-09-08T08:59:27.348Z,4264.00
2023-09-08T09:00:27.350Z,4280.00
2023-09-08T09:01:27.380Z,4280.00
2023-09-08T09:02:27.311Z,4276.00
2023-09-08T09:03:27.308Z,4296.00
2023-09-08T09:04:27.337Z,4308.00
2023-09-08T09:05:27.310Z,4308.00
2023-09-08T09:06:27.273Z,4312.00
2023-09-08T09:07:27.289Z,4316.00
2023-09-08T09:08:27.219Z,4312.00
2023-09-08T09:09:27.240Z,4340.00
2023-09-08T09:10:27.220Z,4324.00
2023-09-08T09:11:27.276Z,4324.00
2023-09-08T09:12:27.187Z,4328.00
2023-09-08T09:13:27.162Z,4328.00
2023-09-08T09:14:27.165Z,4332.00
2023-09-08T09:15:27.131Z,4324.00
2023-09-08T09:16:27.162Z,4332.00
2023-09-08T09:17:27.132Z,4344.00
2023-09-08T09:18:27.158Z,4336.00
2023-09-08T09:19:27.102Z,4356.00
2023-09-08T09:20:27.077Z,4352.00
2023-09-08T09:21:27.054Z,4352.00
2023-09-08T09:22:27.071Z,4352.00
2023-09-08T09:23:33.030Z,4356.00
2023-09-08T09:24:27.090Z,4352.00
2023-09-08T09:25:27.342Z,4360.00
2023-09-08T09:26:27.014Z,4364.00
2023-09-08T09:27:27.041Z,4360.00
2023-09-08T09:28:26.974Z,4368.00
2023-09-08T09:29:26.987Z,4376.00
2023-09-08T09:30:26.971Z,4400.00
2023-09-08T09:31:26.966Z,4384.00
2023-09-08T09:32:26.922Z,4380.00
2023-09-08T09:33:26.941Z,4388.00
2023-09-08T09:34:26.915Z,4392.00
2023-09-08T09:35:26.908Z,4388.00
2023-09-08T09:36:26.860Z,4400.00
2023-09-08T09:37:26.895Z,4392.00
2023-09-08T09:38:26.869Z,4400.00
2023-09-08T09:39:26.868Z,4392.00
2023-09-08T09:40:26.830Z,4408.00
2023-09-08T09:41:26.827Z,4400.00
2023-09-08T09:42:26.810Z,4404.00
2023-09-08T09:43:26.838Z,4432.00
2023-09-08T09:44:26.861Z,4412.00
2023-09-08T09:45:26.810Z,4420.00
2023-09-08T09:46:26.768Z,4412.00
2023-09-08T09:47:26.800Z,4408.00
2023-09-08T09:48:26.778Z,4420.00
2023-09-08T09:49:26.723Z,4440.00
2023-09-08T09:50:26.703Z,4448.00
2023-09-08T09:51:26.676Z,4440.00
2023-09-08T09:52:26.689Z,4448.00
2023-09-08T09:53:26.674Z,4452.00
2023-09-08T09:54:26.666Z,4456.00
2023-09-08T09:55:26.641Z,4476.00
2023-09-08T09:56:26.607Z,4468.00
2023-09-08T09:57:26.605Z,4476.00
2023-09-08T09:58:26.625Z,4496.00
2023-09-08T09:59:26.583Z,4500.00
2023-09-08T10:00:26.638Z,4508.00
2023-09-08T10:01:26.624Z,4520.00
2023-09-08T10:02:26.601Z,4520.00
2023-09-08T10:03:26.615Z,4548.00
2023-09-08T10:04:26.505Z,4552.00
2023-09-08T10:05:26.518Z,4556.00
2023-09-08T10:06:26.580Z,4564.00
2023-09-08T10:07:26.488Z,4564.00
2023-09-08T10:08:26.464Z,4584.00
2023-09-08T10:09:26.453Z,4576.00
2023-09-08T10:10:26.422Z,4620.00
2023-09-08T10:11:26.452Z,4600.00
2023-09-08T10:12:26.441Z,4616.00
2023-09-08T10:13:26.408Z,4616.00
2023-09-08T10:14:26.379Z,4616.00
2023-09-08T10:15:26.408Z,4640.00
2023-09-08T10:16:26.403Z,4636.00
2023-09-08T10:17:26.366Z,4644.00
2023-09-08T10:18:26.468Z,4648.00
2023-09-08T10:19:26.329Z,4664.00
2023-09-08T10:20:26.325Z,4672.00
2023-09-08T10:21:26.292Z,4692.00
2023-09-08T10:22:26.266Z,4712.00
2023-09-08T10:23:26.293Z,4720.00
2023-09-08T10:24:26.334Z,4740.00
2023-09-08T10:25:26.238Z,4740.00
2023-09-08T10:26:26.224Z,4756.00
2023-09-08T10:27:26.270Z,4776.00
2023-09-08T10:28:26.225Z,4776.00
2023-09-08T10:29:26.185Z,4788.00
2023-09-08T10:30:26.266Z,4784.00
2023-09-08T10:31:26.257Z,4788.00
2023-09-08T10:32:26.260Z,4800.00
2023-09-08T10:33:26.148Z,4812.00
2023-09-08T10:34:26.142Z,4820.00
2023-09-08T10:35:26.120Z,4820.00
2023-09-08T10:36:26.199Z,4816.00
2023-09-08T10:37:26.118Z,4824.00
2023-09-08T10:38:26.094Z,4828.00
2023-09-08T10:39:26.098Z,4840.00
2023-09-08T10:40:26.072Z,4852.00
2023-09-08T10:41:26.061Z,4856.00
2023-09-08T10:42:26.105Z,4876.00
2023-09-08T10:43:26.032Z,4868.00
2023-09-08T10:44:26.049Z,4880.00
2023-09-08T10:45:26.057Z,4884.00
2023-09-08T10:46:26.002Z,4876.00
2023-09-08T10:47:25.985Z,4876.00
2023-09-08T10:48:26.115Z,4888.00
2023-09-08T10:49:25.932Z,4904.00
2023-09-08T10:50:25.922Z,4924.00
2023-09-08T10:51:25.922Z,4932.00
2023-09-08T10:52:25.979Z,4952.00
2023-09-08T10:53:25.886Z,4956.00
2023-09-08T10:54:25.900Z,4972.00
2023-09-08T10:55:25.880Z,4972.00
2023-09-08T10:56:25.866Z,4980.00
2023-09-08T10:57:25.863Z,4984.00
2023-09-08T10:58:28.020Z,4992.00
2023-09-08T10:59:25.832Z,4992.00
2023-09-08T11:00:25.810Z,4996.00
2023-09-08T11:01:25.814Z,5008.00
2023-09-08T11:02:25.795Z,5012.00
2023-09-08T11:03:25.965Z,5020.00
2023-09-08T11:04:25.895Z,5028.00
2023-09-08T11:05:25.755Z,5028.00
2023-09-08T11:06:25.742Z,5016.00
2023-09-08T11:07:25.702Z,5016.00
2023-09-08T11:08:27.211Z,5028.00
2023-09-08T11:09:25.677Z,5032.00
2023-09-08T11:10:25.685Z,5024.00
2023-09-08T11:11:25.691Z,5028.00
2023-09-08T11:12:25.654Z,5028.00
2023-09-08T11:13:25.628Z,5028.00
2023-09-08T11:14:25.621Z,5016.00
2023-09-08T11:15:25.680Z,5020.00
2023-09-08T11:16:25.677Z,5032.00
2023-09-08T11:17:25.622Z,5056.00
2023-09-08T11:18:25.692Z,5060.00
2023-09-08T11:19:25.596Z,5068.00
2023-09-08T11:20:25.598Z,5080.00
2023-09-08T11:21:25.796Z,5080.00
2023-09-08T11:22:25.516Z,5088.00
2023-09-08T11:23:25.541Z,5084.00
2023-09-08T11:24:25.533Z,5084.00
2023-09-08T11:25:25.485Z,5084.00
2023-09-08T11:26:25.496Z,5096.00
2023-09-08T11:27:25.481Z,5112.00
2023-09-08T11:28:25.486Z,5128.00
2023-09-08T11:29:25.444Z,5120.00
2023-09-08T11:30:25.404Z,5136.00
2023-09-08T11:31:25.436Z,5140.00
2023-09-08T11:32:25.426Z,5156.00
2023-09-08T11:33:25.406Z,5136.00
2023-09-08T11:34:25.366Z,5136.00
2023-09-08T11:35:25.346Z,5152.00
2023-09-08T11:36:25.344Z,5172.00
2023-09-08T11:37:25.322Z,5180.00
2023-09-08T11:38:25.320Z,5188.00
2023-09-08T11:39:25.311Z,5192.00
2023-09-08T11:40:25.278Z,5200.00
2023-09-08T11:41:25.343Z,5200.00
2023-09-08T11:42:25.250Z,5204.00
2023-09-08T11:43:25.268Z,5220.00
2023-09-08T11:44:25.406Z,5224.00
2023-09-08T11:45:25.234Z,5244.00
2023-09-08T11:46:25.313Z,5260.00
2023-09-08T11:47:25.209Z,5280.00
2023-09-08T11:48:25.206Z,5292.00
2023-09-08T11:49:25.187Z,5300.00
2023-09-08T11:50:25.189Z,5320.00
2023-09-08T11:51:25.162Z,5344.00
2023-09-08T11:52:25.274Z,5352.00
2023-09-08T11:53:25.129Z,5348.00
2023-09-08T11:54:25.103Z,5348.00
2023-09-08T11:55:25.106Z,5364.00
2023-09-08T11:56:25.095Z,5380.00
2023-09-08T11:57:25.081Z,5388.00
2023-09-08T11:58:25.091Z,5408.00
2023-09-08T11:59:25.056Z,5416.00
2023-09-08T12:00:25.048Z,5420.00
2023-09-08T12:01:25.033Z,5424.00
2023-09-08T12:02:25.057Z,5436.00
2023-09-08T12:03:25.065Z,5448.00
2023-09-08T12:04:25.060Z,5460.00
2023-09-08T12:05:25.096Z,5480.00
2023-09-08T12:06:24.970Z,5484.00
2023-09-08T12:07:24.956Z,5496.00
2023-09-08T12:08:24.940Z,5520.00
2023-09-08T12:09:24.930Z,5540.00
2023-09-08T12:10:24.935Z,5544.00
2023-09-08T12:11:24.914Z,5556.00
2023-09-08T12:12:24.893Z,5572.00
2023-09-08T12:13:24.904Z,5588.00
2023-09-08T12:14:24.857Z,5612.00
2023-09-08T12:15:24.852Z,5628.00
2023-09-08T12:16:24.945Z,5644.00
2023-09-08T12:17:24.867Z,5656.00
2023-09-08T12:18:24.812Z,5668.00
2023-09-08T12:19:24.797Z,5672.00
2023-09-08T12:20:24.791Z,5688.00
2023-09-08T12:21:24.771Z,5700.00
2023-09-08T12:22:24.763Z,5716.00
2023-09-08T12:23:24.764Z,5728.00
2023-09-08T12:24:24.798Z,5748.00
2023-09-08T12:25:24.736Z,5768.00
2023-09-08T12:26:24.737Z,5772.00
2023-09-08T12:27:24.730Z,5808.00
2023-09-08T12:28:24.749Z,5824.00
2023-09-08T12:29:24.695Z,5848.00
2023-09-08T12:30:24.665Z,5876.00